Wetterdaten: Woche 17.04.17 - 23.04.17 (KW16)
Datum Zeit Temp. A. Feuchte A. Luftdruck Regen Wind Richtung Taupunkt Windchill Windben
17.04.2017 00:00 7,2 C 75 % 1017,2 hPa 0,0 l/m 6,1 km/h N 3,0 C 7,1 C 24,5 km/h
17.04.2017 01:00 6,8 C 76 % 1017,1 hPa 0,0 l/m 5,0 km/h N 2,8 C 6,8 C 15,3 km/h
17.04.2017 02:00 6,3 C 78 % 1016,8 hPa 0,0 l/m 4,1 km/h N 2,7 C 6,3 C 15,3 km/h
17.04.2017 03:00 6,4 C 77 % 1016,6 hPa 0,0 l/m 5,6 km/h N 2,6 C 6,2 C 16,9 km/h
17.04.2017 04:00 6,0 C 78 % 1016,4 hPa 0,0 l/m 5,8 km/h N 2,3 C 5,8 C 18,1 km/h
17.04.2017 05:00 5,9 C 79 % 1016,5 hPa 0,0 l/m 5,4 km/h N 2,5 C 5,9 C 18,9 km/h
17.04.2017 06:00 6,0 C 78 % 1016,7 hPa 0,0 l/m 4,6 km/h N 2,5 C 6,0 C 17,3 km/h
17.04.2017 07:00 6,2 C 79 % 1017,0 hPa 0,0 l/m 5,7 km/h N 2,9 C 6,1 C 18,9 km/h
17.04.2017 08:00 6,9 C 79 % 1016,9 hPa 0,0 l/m 4,9 km/h N 3,4 C 6,6 C 17,7 km/h
17.04.2017 09:00 8,4 C 75 % 1016,5 hPa 0,0 l/m 6,9 km/h N 4,2 C 8,0 C 25,0 km/h
17.04.2017 10:00 9,6 C 70 % 1016,0 hPa 0,0 l/m 8,1 km/h N 4,3 C 8,4 C 24,5 km/h
17.04.2017 11:00 10,9 C 62 % 1015,3 hPa 0,0 l/m 5,4 km/h N 3,9 C 10,4 C 20,5 km/h
17.04.2017 12:00 11,1 C 57 % 1014,8 hPa 0,0 l/m 6,7 km/h N 2,9 C 10,6 C 23,7 km/h
17.04.2017 13:00 11,4 C 60 % 1014,2 hPa 0,0 l/m 8,0 km/h N 3,7 C 10,2 C 27,3 km/h
17.04.2017 14:00 12,1 C 53 % 1013,5 hPa 0,0 l/m 7,8 km/h N 2,9 C 10,9 C 26,5 km/h
17.04.2017 15:00 11,8 C 53 % 1013,0 hPa 0,0 l/m 6,7 km/h N 2,6 C 11,2 C 22,9 km/h
17.04.2017 16:00 12,2 C 52 % 1012,1 hPa 0,0 l/m 2,3 km/h N 2,5 C 12,2 C 13,7 km/h
17.04.2017 17:00 11,6 C 53 % 1011,5 hPa 0,0 l/m 2,1 km/h N 2,3 C 11,6 C 12,5 km/h
17.04.2017 18:00 11,3 C 56 % 1010,4 hPa 0,0 l/m 0,0 km/h N 2,7 C 11,3 C 0,4 km/h
17.04.2017 19:00 10,3 C 64 % 1011,3 hPa 2,1 l/m 0,7 km/h N 3,7 C 10,3 C 8,1 km/h
17.04.2017 20:00 7,7 C 78 % 1011,8 hPa 4,9 l/m 0,6 km/h N 4,1 C 7,7 C 6,4 km/h
17.04.2017 21:00 6,9 C 82 % 1011,5 hPa 2,3 l/m 0,1 km/h N 3,9 C 6,9 C 3,2 km/h
17.04.2017 22:00 6,7 C 82 % 1011,7 hPa 1,6 l/m 0,2 km/h N 3,8 C 6,7 C 4,0 km/h
17.04.2017 23:00 6,4 C 83 % 1011,7 hPa 1,0 l/m 5,4 km/h N 3,6 C 6,2 C 18,5 km/h
18.04.2017 00:00 6,0 C 83 % 1012,1 hPa 0,0 l/m 7,9 km/h N 3,3 C 4,7 C 22,5 km/h
18.04.2017 01:00 5,3 C 83 % 1012,4 hPa 0,0 l/m 10,0 km/h N 2,6 C 2,4 C 24,9 km/h
18.04.2017 02:00 5,1 C 83 % 1012,7 hPa 0,3 l/m 10,7 km/h N 2,4 C 1,7 C 26,1 km/h
18.04.2017 03:00 4,9 C 82 % 1012,8 hPa 0,3 l/m 8,9 km/h N 2,1 C 2,8 C 21,3 km/h
18.04.2017 04:00 5,0 C 82 % 1012,7 hPa 0,0 l/m 9,6 km/h N 2,1 C 2,4 C 24,5 km/h
18.04.2017 05:00 4,8 C 81 % 1012,8 hPa 0,0 l/m 7,8 km/h N 1,7 C 3,1 C 20,9 km/h
18.04.2017 06:00 4,3 C 81 % 1013,3 hPa 0,0 l/m 4,4 km/h N 1,4 C 4,3 C 14,9 km/h
18.04.2017 07:00 4,7 C 81 % 1014,1 hPa 0,0 l/m 6,6 km/h N 1,7 C 4,5 C 18,5 km/h
18.04.2017 08:00 5,3 C 79 % 1014,8 hPa 0,0 l/m 6,3 km/h N 1,9 C 5,2 C 20,5 km/h
18.04.2017 09:00 6,0 C 76 % 1014,9 hPa 0,0 l/m 7,4 km/h N 2,1 C 4,8 C 18,9 km/h
18.04.2017 10:00 6,9 C 68 % 1014,9 hPa 0,0 l/m 11,3 km/h N 1,4 C 3,3 C 26,1 km/h
18.04.2017 11:00 8,0 C 64 % 1015,1 hPa 0,0 l/m 10,0 km/h N 1,6 C 5,3 C 24,1 km/h
18.04.2017 12:00 7,8 C 67 % 1015,1 hPa 0,0 l/m 10,6 km/h N 1,9 C 4,8 C 24,9 km/h
18.04.2017 13:00 8,8 C 63 % 1014,7 hPa 0,0 l/m 9,0 km/h N 2,2 C 6,9 C 24,9 km/h
18.04.2017 14:00 7,8 C 63 % 1015,5 hPa 0,0 l/m 11,4 km/h N 1,2 C 4,4 C 28,2 km/h
18.04.2017 15:00 6,6 C 73 % 1015,8 hPa 0,0 l/m 8,6 km/h N 2,1 C 4,8 C 24,5 km/h
18.04.2017 16:00 6,5 C 76 % 1015,8 hPa 0,0 l/m 8,4 km/h N 2,5 C 4,5 C 24,5 km/h
18.04.2017 17:00 6,2 C 77 % 1016,5 hPa 0,0 l/m 9,7 km/h N 2,4 C 3,7 C 29,0 km/h
18.04.2017 18:00 4,7 C 80 % 1017,4 hPa 2,1 l/m 7,9 km/h N 1,5 C 3,2 C 21,7 km/h
18.04.2017 19:00 4,1 C 83 % 1017,4 hPa 0,0 l/m 7,9 km/h N 1,3 C 2,7 C 23,3 km/h
18.04.2017 20:00 3,9 C 82 % 1018,0 hPa 0,0 l/m 9,4 km/h N 1,1 C 1,4 C 26,5 km/h
18.04.2017 21:00 3,8 C 82 % 1018,7 hPa 2,3 l/m 5,1 km/h N 1,0 C 3,8 C 17,7 km/h
18.04.2017 22:00 3,3 C 83 % 1018,5 hPa 0,3 l/m 4,3 km/h N 0,7 C 3,3 C 14,1 km/h
18.04.2017 23:00 3,4 C 83 % 1018,5 hPa 0,0 l/m 6,6 km/h N 0,8 C 2,9 C 19,3 km/h
19.04.2017 00:00 3,0 C 82 % 1018,8 hPa 0,0 l/m 7,6 km/h N 0,2 C 1,9 C 21,7 km/h
19.04.2017 01:00 2,8 C 80 % 1019,0 hPa 0,0 l/m 8,9 km/h N -0,3 C 0,5 C 22,1 km/h
19.04.2017 02:00 2,8 C 79 % 1018,3 hPa 0,0 l/m 11,8 km/h N -0,5 C -1,6 C 26,5 km/h
19.04.2017 03:00 2,6 C 80 % 1018,3 hPa 0,0 l/m 10,5 km/h N -0,5 C -0,9 C 27,4 km/h
19.04.2017 04:00 2,6 C 77 % 1018,4 hPa 0,0 l/m 10,7 km/h N -1,0 C -1,1 C 27,4 km/h
19.04.2017 05:00 2,5 C 75 % 1018,1 hPa 0,0 l/m 12,0 km/h N -1,5 C -2,1 C 31,0 km/h
19.04.2017 06:00 1,9 C 77 % 1018,3 hPa 0,0 l/m 13,1 km/h N -1,7 C -3,5 C 33,0 km/h
19.04.2017 07:00 1,2 C 81 % 1018,5 hPa 0,0 l/m 15,3 km/h N -1,6 C -5,7 C 34,6 km/h
19.04.2017 08:00 0,8 C 83 % 1018,7 hPa 0,0 l/m 14,5 km/h N -1,8 C -5,7 C 35,4 km/h
19.04.2017 09:00 1,0 C 83 % 1018,8 hPa 0,0 l/m 16,0 km/h N -1,6 C -6,4 C 40,7 km/h
19.04.2017 10:00 1,2 C 83 % 1018,9 hPa 0,0 l/m 15,3 km/h N -1,5 C -5,7 C 35,0 km/h
19.04.2017 11:00 1,0 C 83 % 1019,1 hPa 0,0 l/m 13,7 km/h N -1,5 C -4,9 C 32,6 km/h
19.04.2017 12:00 1,0 C 83 % 1019,5 hPa 1,0 l/m 11,4 km/h N -1,5 C -3,4 C 29,0 km/h
19.04.2017 13:00 1,5 C 83 % 1019,5 hPa 0,3 l/m 13,4 km/h N -1,0 C -4,2 C 33,8 km/h
19.04.2017 14:00 1,3 C 83 % 1019,8 hPa 0,8 l/m 14,1 km/h N -1,2 C -4,8 C 32,6 km/h
19.04.2017 15:00 1,1 C 83 % 1020,2 hPa 1,0 l/m 12,5 km/h N -1,4 C -4,0 C 31,8 km/h
19.04.2017 16:00 0,9 C 83 % 1020,5 hPa 1,0 l/m 15,8 km/h N -1,7 C -6,3 C 37,0 km/h
19.04.2017 17:00 0,8 C 83 % 1021,2 hPa 1,0 l/m 12,4 km/h N -1,8 C -4,4 C 29,8 km/h
19.04.2017 18:00 0,7 C 83 % 1022,0 hPa 0,8 l/m 11,0 km/h N -1,8 C -3,4 C 25,8 km/h
19.04.2017 19:00 0,8 C 83 % 1022,8 hPa 1,0 l/m 10,1 km/h N -1,8 C -2,6 C 29,4 km/h
19.04.2017 20:00 1,0 C 83 % 1023,7 hPa 1,0 l/m 12,9 km/h N -1,6 C -4,5 C 31,4 km/h
19.04.2017 21:00 1,2 C 83 % 1024,7 hPa 0,8 l/m 12,1 km/h N -1,4 C -3,6 C 28,6 km/h
19.04.2017 22:00 1,0 C 83 % 1025,0 hPa 0,5 l/m 12,4 km/h N -1,6 C -4,1 C 28,2 km/h
19.04.2017 23:00 1,1 C 83 % 1025,1 hPa 0,3 l/m 11,2 km/h N -1,5 C -3,1 C 30,2 km/h
20.04.2017 00:00 1,5 C 83 % 1025,4 hPa 0,3 l/m 12,9 km/h N -1,1 C -3,9 C 29,8 km/h
20.04.2017 01:00 1,7 C 81 % 1025,4 hPa 0,0 l/m 11,8 km/h N -1,2 C -2,9 C 29,0 km/h
20.04.2017 02:00 1,8 C 78 % 1025,3 hPa 0,3 l/m 10,4 km/h N -1,6 C -1,7 C 25,3 km/h
20.04.2017 03:00 1,9 C 76 % 1025,2 hPa 0,0 l/m 10,9 km/h N -1,9 C -2,1 C 27,0 km/h
20.04.2017 04:00 1,8 C 75 % 1025,4 hPa 0,0 l/m 11,9 km/h N -2,2 C -2,8 C 28,6 km/h
20.04.2017 05:00 1,7 C 74 % 1026,0 hPa 0,0 l/m 11,3 km/h N -2,4 C -2,5 C 30,2 km/h
20.04.2017 06:00 1,6 C 74 % 1026,4 hPa 0,0 l/m 10,7 km/h N -2,6 C -2,2 C 28,2 km/h
20.04.2017 07:00 1,4 C 74 % 1027,0 hPa 0,0 l/m 10,9 km/h N -2,7 C -2,6 C 27,0 km/h
20.04.2017 08:00 1,6 C 74 % 1027,5 hPa 0,0 l/m 11,7 km/h N -2,5 C -2,9 C 28,6 km/h
20.04.2017 09:00 1,9 C 73 % 1028,0 hPa 0,0 l/m 11,6 km/h N -2,5 C -2,5 C 29,4 km/h
20.04.2017 10:00 2,2 C 73 % 1028,6 hPa 0,3 l/m 12,1 km/h N -2,1 C -2,6 C 28,2 km/h
20.04.2017 11:00 2,7 C 70 % 1029,2 hPa 0,0 l/m 13,0 km/h N -2,3 C -2,6 C 31,0 km/h
20.04.2017 12:00 2,8 C 71 % 1029,4 hPa 0,0 l/m 12,0 km/h N -2,0 C -1,7 C 29,8 km/h
20.04.2017 13:00 3,3 C 70 % 1029,3 hPa 0,3 l/m 12,3 km/h N -1,7 C -1,4 C 31,0 km/h
20.04.2017 14:00 4,1 C 65 % 1029,3 hPa 0,0 l/m 12,2 km/h N -1,8 C -0,3 C 30,2 km/h
20.04.2017 15:00 3,9 C 65 % 1029,6 hPa 0,0 l/m 12,2 km/h N -2,1 C -0,5 C 32,2 km/h
20.04.2017 16:00 4,7 C 58 % 1029,4 hPa 0,0 l/m 12,1 km/h N -2,8 C 0,3 C 28,2 km/h
20.04.2017 17:00 4,8 C 55 % 1029,5 hPa 0,0 l/m 12,6 km/h N -3,6 C 0,1 C 30,6 km/h
20.04.2017 18:00 4,5 C 56 % 1029,9 hPa 0,0 l/m 8,9 km/h N -3,5 C 2,4 C 23,3 km/h
20.04.2017 19:00 4,2 C 56 % 1030,2 hPa 0,0 l/m 6,5 km/h N -3,9 C 3,8 C 19,3 km/h
20.04.2017 20:00 3,5 C 59 % 1030,8 hPa 0,0 l/m 1,8 km/h N -3,7 C 3,5 C 9,3 km/h
20.04.2017 21:00 2,9 C 62 % 1031,6 hPa 0,0 l/m 2,0 km/h N -3,6 C 2,9 C 8,0 km/h
20.04.2017 22:00 2,7 C 64 % 1032,1 hPa 0,0 l/m 1,6 km/h N -3,6 C 2,7 C 6,4 km/h
20.04.2017 23:00 2,6 C 62 % 1032,2 hPa 0,0 l/m 1,9 km/h N -4,0 C 2,6 C 9,2 km/h
21.04.2017 00:00 2,4 C 61 % 1032,3 hPa 0,0 l/m 2,2 km/h N -4,3 C 2,4 C 8,9 km/h
21.04.2017 01:00 2,2 C 63 % 1032,0 hPa 0,0 l/m 1,5 km/h N -4,2 C 2,2 C 8,5 km/h
21.04.2017 02:00 1,8 C 65 % 1031,8 hPa 0,0 l/m 0,2 km/h N -4,1 C 1,8 C 2,8 km/h
21.04.2017 03:00 1,5 C 67 % 1031,4 hPa 0,0 l/m 1,3 km/h N -4,0 C 1,5 C 8,4 km/h
21.04.2017 04:00 1,9 C 70 % 1031,0 hPa 0,0 l/m 3,8 km/h N -3,0 C 1,9 C 13,3 km/h
21.04.2017 05:00 2,0 C 71 % 1030,8 hPa 0,0 l/m 2,3 km/h N -2,8 C 2,0 C 8,9 km/h
21.04.2017 06:00 1,8 C 72 % 1030,7 hPa 0,0 l/m 1,8 km/h N -2,8 C 1,8 C 9,3 km/h
21.04.2017 07:00 2,2 C 69 % 1030,7 hPa 0,0 l/m 4,1 km/h N -2,9 C 2,2 C 12,9 km/h
21.04.2017 08:00 4,0 C 64 % 1030,6 hPa 0,0 l/m 7,1 km/h N -2,3 C 3,4 C 18,1 km/h
21.04.2017 09:00 5,4 C 59 % 1030,3 hPa 0,0 l/m 9,0 km/h N -1,9 C 3,3 C 23,7 km/h
21.04.2017 10:00 6,6 C 56 % 1030,1 hPa 0,0 l/m 9,9 km/h N -1,6 C 4,0 C 24,1 km/h
21.04.2017 11:00 6,7 C 58 % 1029,7 hPa 0,0 l/m 10,6 km/h N -1,0 C 3,6 C 26,1 km/h
21.04.2017 12:00 8,0 C 54 % 1028,8 hPa 0,0 l/m 11,9 km/h N -0,8 C 4,3 C 33,4 km/h
21.04.2017 13:00 9,1 C 52 % 1027,9 hPa 0,0 l/m 11,3 km/h N -0,4 C 5,8 C 32,2 km/h
21.04.2017 14:00 9,8 C 52 % 1027,1 hPa 0,0 l/m 13,3 km/h N 0,3 C 5,7 C 31,8 km/h
21.04.2017 15:00 10,5 C 49 % 1026,0 hPa 0,0 l/m 9,7 km/h N 0,2 C 8,3 C 29,8 km/h
21.04.2017 16:00 10,6 C 49 % 1025,2 hPa 0,0 l/m 10,4 km/h N 0,2 C 8,1 C 30,2 km/h
21.04.2017 17:00 10,8 C 48 % 1024,9 hPa 0,0 l/m 9,6 km/h N 0,3 C 8,8 C 31,8 km/h
21.04.2017 18:00 10,0 C 49 % 1024,7 hPa 0,0 l/m 9,8 km/h N -0,3 C 7,7 C 28,2 km/h
21.04.2017 19:00 9,9 C 50 % 1024,3 hPa 0,0 l/m 9,5 km/h N -0,2 C 7,8 C 27,0 km/h
21.04.2017 20:00 9,1 C 53 % 1023,9 hPa 0,0 l/m 5,7 km/h N -0,1 C 8,9 C 27,0 km/h
21.04.2017 21:00 8,7 C 53 % 1023,9 hPa 0,0 l/m 9,9 km/h N -0,3 C 6,3 C 30,6 km/h
21.04.2017 22:00 8,6 C 53 % 1024,0 hPa 0,0 l/m 6,3 km/h N -0,5 C 8,1 C 27,0 km/h
21.04.2017 23:00 8,7 C 50 % 1023,4 hPa 0,0 l/m 5,6 km/h N -1,2 C 8,5 C 22,5 km/h
22.04.2017 00:00 8,8 C 49 % 1022,9 hPa 0,0 l/m 3,9 km/h N -1,4 C 8,8 C 20,1 km/h
22.04.2017 01:00 9,6 C 48 % 1022,1 hPa 0,0 l/m 6,6 km/h N -1,0 C 8,9 C 22,1 km/h
22.04.2017 02:00 10,1 C 46 % 1021,2 hPa 0,0 l/m 8,6 km/h N -1,0 C 8,5 C 26,1 km/h
22.04.2017 03:00 10,0 C 46 % 1020,6 hPa 0,0 l/m 12,1 km/h N -1,1 C 6,5 C 34,6 km/h
22.04.2017 04:00 10,0 C 48 % 1019,7 hPa 0,0 l/m 6,2 km/h N -0,6 C 9,9 C 28,2 km/h
22.04.2017 05:00 10,1 C 49 % 1019,4 hPa 0,0 l/m 6,0 km/h N -0,2 C 9,9 C 26,1 km/h
22.04.2017 06:00 10,2 C 52 % 1019,2 hPa 0,0 l/m 5,5 km/h N 0,8 C 10,2 C 24,9 km/h
22.04.2017 07:00 10,4 C 50 % 1019,0 hPa 0,0 l/m 5,1 km/h N 0,4 C 9,9 C 20,5 km/h
22.04.2017 08:00 10,8 C 47 % 1018,9 hPa 0,0 l/m 9,6 km/h N -0,1 C 8,8 C 29,4 km/h
22.04.2017 09:00 11,0 C 47 % 1018,6 hPa 0,0 l/m 14,2 km/h N -0,0 C 6,7 C 35,8 km/h
22.04.2017 10:00 11,3 C 46 % 1018,5 hPa 0,0 l/m 13,1 km/h N 0,0 C 7,6 C 36,2 km/h
22.04.2017 11:00 11,9 C 49 % 1018,3 hPa 0,0 l/m 14,3 km/h N 1,5 C 7,8 C 35,8 km/h
22.04.2017 12:00 10,9 C 56 % 1018,6 hPa 0,0 l/m 9,9 km/h N 2,5 C 8,7 C 28,2 km/h
22.04.2017 13:00 11,2 C 61 % 1017,9 hPa 0,0 l/m 5,9 km/h N 3,9 C 10,9 C 25,8 km/h
22.04.2017 14:00 11,1 C 65 % 1017,3 hPa 0,3 l/m 8,8 km/h N 4,7 C 9,5 C 26,1 km/h
22.04.2017 15:00 11,8 C 64 % 1016,1 hPa 0,0 l/m 6,1 km/h N 5,1 C 11,5 C 28,5 km/h
22.04.2017 16:00 12,4 C 60 % 1015,4 hPa 0,0 l/m 8,8 km/h N 4,7 C 10,9 C 31,0 km/h
22.04.2017 17:00 11,3 C 63 % 1015,5 hPa 0,0 l/m 9,8 km/h N 4,4 C 9,2 C 30,2 km/h
22.04.2017 18:00 9,0 C 74 % 1016,9 hPa 0,8 l/m 7,3 km/h N 4,6 C 8,2 C 23,8 km/h
22.04.2017 19:00 6,7 C 81 % 1017,6 hPa 0,5 l/m 6,6 km/h N 3,6 C 6,3 C 20,9 km/h
22.04.2017 20:00 5,4 C 81 % 1018,1 hPa 1,0 l/m 2,2 km/h N 2,5 C 5,4 C 9,3 km/h
22.04.2017 21:00 5,0 C 82 % 1018,0 hPa 0,0 l/m 0,5 km/h N 2,2 C 5,0 C 6,8 km/h
22.04.2017 22:00 5,6 C 82 % 1018,1 hPa 0,0 l/m 0,6 km/h N 2,8 C 5,6 C 6,4 km/h
22.04.2017 23:00 5,5 C 82 % 1018,0 hPa 0,0 l/m 0,4 km/h N 2,7 C 5,5 C 5,2 km/h
23.04.2017 00:00 5,7 C 82 % 1018,0 hPa 0,0 l/m 2,9 km/h N 2,8 C 5,7 C 13,3 km/h
23.04.2017 01:00 6,5 C 77 % 1017,9 hPa 0,0 l/m 5,8 km/h N 2,7 C 6,4 C 18,5 km/h
23.04.2017 02:00 6,4 C 76 % 1017,7 hPa 0,0 l/m 3,5 km/h N 2,5 C 6,4 C 14,1 km/h
23.04.2017 03:00 6,1 C 77 % 1017,5 hPa 0,0 l/m 5,6 km/h N 2,4 C 6,1 C 16,9 km/h
23.04.2017 04:00 5,5 C 76 % 1017,6 hPa 0,0 l/m 6,5 km/h N 1,5 C 4,9 C 18,1 km/h
23.04.2017 05:00 5,2 C 75 % 1017,7 hPa 0,0 l/m 3,4 km/h N 1,2 C 5,2 C 12,1 km/h
23.04.2017 06:00 5,0 C 77 % 1018,4 hPa 0,0 l/m 4,1 km/h N 1,3 C 5,0 C 16,1 km/h
23.04.2017 07:00 5,4 C 76 % 1019,5 hPa 0,0 l/m 5,2 km/h N 1,5 C 5,4 C 17,7 km/h
23.04.2017 08:00 6,0 C 74 % 1020,3 hPa 0,8 l/m 9,5 km/h N 1,7 C 3,7 C 25,8 km/h
23.04.2017 09:00 5,6 C 80 % 1020,4 hPa 0,3 l/m 7,5 km/h N 2,4 C 4,4 C 24,1 km/h
23.04.2017 10:00 6,8 C 71 % 1020,5 hPa 0,3 l/m 8,8 km/h N 2,0 C 4,8 C 26,6 km/h
23.04.2017 11:00 8,1 C 68 % 1020,2 hPa 0,0 l/m 10,9 km/h N 2,4 C 4,9 C 26,5 km/h
23.04.2017 12:00 9,1 C 58 % 1019,8 hPa 0,0 l/m 9,9 km/h N 1,3 C 6,8 C 28,6 km/h
23.04.2017 13:00 9,7 C 53 % 1019,7 hPa 0,0 l/m 12,2 km/h N 0,5 C 6,1 C 31,4 km/h
23.04.2017 14:00 10,4 C 48 % 1019,4 hPa 0,0 l/m 12,7 km/h N -0,3 C 6,7 C 30,6 km/h
23.04.2017 15:00 10,1 C 52 % 1019,1 hPa 0,0 l/m 6,4 km/h N 0,6 C 9,6 C 20,1 km/h
23.04.2017 16:00 10,4 C 46 % 1018,8 hPa 0,0 l/m 7,3 km/h N -0,8 C 9,3 C 24,1 km/h
23.04.2017 17:00 10,4 C 48 % 1019,1 hPa 0,0 l/m 4,5 km/h N -0,2 C 10,4 C 19,3 km/h
23.04.2017 18:00 10,2 C 50 % 1019,4 hPa 0,0 l/m 5,9 km/h N 0,2 C 9,9 C 20,1 km/h
23.04.2017 19:00 9,7 C 50 % 1019,8 hPa 0,0 l/m 5,8 km/h N -0,3 C 9,6 C 20,9 km/h
23.04.2017 20:00 9,3 C 50 % 1020,6 hPa 0,0 l/m 4,9 km/h N -0,6 C 9,2 C 15,7 km/h
23.04.2017 21:00 8,8 C 52 % 1021,5 hPa 0,0 l/m 1,8 km/h N -0,5 C 8,8 C 8,9 km/h
23.04.2017 22:00 8,4 C 51 % 1022,0 hPa 0,0 l/m 2,8 km/h N -1,1 C 8,4 C 12,9 km/h
23.04.2017 23:00 7,4 C 54 % 1022,3 hPa 0,0 l/m 0,8 km/h N -1,3 C 7,4 C 5,6 km/h
Min-Datum _ 19.04.17 23.04.17 17.04.17 - 17.04.17 - 21.04.17 19.04.17 17.04.17
_ Min-Zeit 08:30 16:30 18:30 - 18:00 - 01:00 09:15 18:15
Minimum _ 0,7 C 41 % 1010,2 hPa - 0,0 km/h - -4,4 C -6,9 C 0,0 km/h
Max-Datum _ 17.04.17 23.04.17 21.04.17 17.04.17 19.04.17 - 22.04.17 17.04.17 19.04.17
_ Max-Zeit 15:00 09:15 00:30 20:00 09:15 - 15:15 14:45 09:45
Maximum _ 13,2 C 86 % 1032,4 hPa 4,9 l/m 16,9 km/h
N
- 5,4 C 13,1 C 45,1 km/h
N
Durchschnitt _ 6,0 C 68 % 1020,6 hPa #31,7 l/m 7,9 km/h N 0,3 C 4,0 C 22,9 km/h